createdAt,value
2018-01-26T00:01:19.912Z,95.00
2018-01-26T00:03:47.355Z,95.30
2018-01-26T00:06:15.566Z,95.10
2018-01-26T00:08:43.000Z,95.10
2018-01-26T00:11:10.437Z,94.90
2018-01-26T00:13:38.645Z,94.80
2018-01-26T00:16:06.072Z,94.70
2018-01-26T00:18:34.277Z,94.50
2018-01-26T00:21:01.714Z,94.50
2018-01-26T00:23:29.152Z,94.40
2018-01-26T00:25:57.342Z,94.70
2018-01-26T00:28:25.544Z,94.00
2018-01-26T00:30:52.993Z,94.00
2018-01-26T00:33:20.434Z,94.30
2018-01-26T00:35:48.667Z,94.80
2018-01-26T00:38:16.900Z,94.80
2018-01-26T00:40:44.333Z,94.50
2018-01-26T00:43:12.538Z,94.40
2018-01-26T00:45:39.984Z,94.40
2018-01-26T00:48:07.439Z,94.20
2018-01-26T00:50:34.888Z,94.40
2018-01-26T00:53:03.108Z,94.40
2018-01-26T00:55:30.534Z,94.40
2018-01-26T00:57:57.963Z,94.50
2018-01-26T01:00:26.168Z,95.10
2018-01-26T01:02:53.605Z,95.10
2018-01-26T01:05:21.804Z,94.90
2018-01-26T01:07:49.261Z,94.90
2018-01-26T01:10:16.696Z,94.80
2018-01-26T01:12:44.893Z,94.80
2018-01-26T01:15:12.342Z,94.80
2018-01-26T01:17:40.545Z,94.90
2018-01-26T01:20:08.022Z,94.80
2018-01-26T01:22:35.421Z,94.60
2018-01-26T01:25:03.625Z,94.80
2018-01-26T01:27:31.069Z,94.80
2018-01-26T01:29:58.510Z,94.70
2018-01-26T01:32:26.732Z,94.60
2018-01-26T01:34:54.184Z,94.60
2018-01-26T01:37:21.635Z,94.40
2018-01-26T01:39:49.065Z,94.70
2018-01-26T01:42:16.513Z,94.80
2018-01-26T01:44:44.728Z,94.80
2018-01-26T01:47:12.157Z,94.70
2018-01-26T01:49:39.592Z,94.80
2018-01-26T01:52:07.948Z,94.60
2018-01-26T01:54:35.374Z,94.60
2018-01-26T01:57:02.865Z,94.40
2018-01-26T01:59:30.325Z,94.60
2018-01-26T02:01:57.757Z,94.80
2018-01-26T02:04:25.188Z,94.70
2018-01-26T02:06:52.631Z,94.60
2018-01-26T02:09:20.835Z,94.60
2018-01-26T02:11:48.256Z,94.60
2018-01-26T02:14:16.477Z,95.10
2018-01-26T02:16:43.935Z,95.10
2018-01-26T02:19:11.360Z,94.90
2018-01-26T02:21:38.788Z,95.10
2018-01-26T02:24:23.915Z,95.00
2018-01-26T02:26:52.108Z,94.80
2018-01-26T02:29:19.548Z,94.80
2018-01-26T02:31:48.072Z,94.70
2018-01-26T02:34:16.229Z,94.80
2018-01-26T02:36:43.657Z,94.80
2018-01-26T02:39:11.096Z,95.10
2018-01-26T02:41:38.528Z,94.50
2018-01-26T02:44:06.772Z,94.50
2018-01-26T02:46:35.008Z,94.40
2018-01-26T02:49:02.449Z,94.60
2018-01-26T02:51:30.651Z,94.70
2018-01-26T02:53:58.083Z,94.70
2018-01-26T02:56:26.285Z,94.80
2018-01-26T02:58:53.746Z,94.80
2018-01-26T03:01:21.206Z,94.50
2018-01-26T03:03:48.679Z,94.70
2018-01-26T03:06:16.114Z,94.60
2018-01-26T03:08:43.549Z,94.40
2018-01-26T03:11:10.989Z,94.30
2018-01-26T03:13:39.188Z,94.40
2018-01-26T03:16:06.621Z,94.40
2018-01-26T03:18:34.814Z,94.20
2018-01-26T03:21:02.255Z,94.20
2018-01-26T03:23:30.448Z,94.50
2018-01-26T03:25:57.884Z,94.50
2018-01-26T03:28:26.084Z,94.40
2018-01-26T03:30:53.527Z,94.40
2018-01-26T03:33:21.742Z,94.70
2018-01-26T03:35:49.176Z,94.70
2018-01-26T03:38:16.640Z,94.40
2018-01-26T03:40:44.080Z,94.40
2018-01-26T03:43:11.533Z,94.80
2018-01-26T03:45:39.729Z,94.80
2018-01-26T03:48:07.171Z,94.80
2018-01-26T03:50:35.400Z,95.40
2018-01-26T03:53:02.836Z,95.40
2018-01-26T03:55:30.287Z,94.90
2018-01-26T03:57:57.701Z,94.80
2018-01-26T04:00:25.145Z,94.60
2018-01-26T04:02:52.575Z,94.50
2018-01-26T04:05:20.021Z,94.20
2018-01-26T04:07:47.515Z,94.50
2018-01-26T04:10:14.940Z,94.40
2018-01-26T04:12:42.412Z,94.50
2018-01-26T04:15:09.868Z,94.60
2018-01-26T04:17:37.313Z,94.50
2018-01-26T04:20:04.759Z,94.50
2018-01-26T04:22:32.245Z,94.50
2018-01-26T04:25:00.440Z,94.30
2018-01-26T04:27:27.888Z,94.30
2018-01-26T04:29:55.320Z,94.50
2018-01-26T04:32:22.757Z,94.40
2018-01-26T04:34:50.180Z,94.40
2018-01-26T04:37:18.388Z,94.70
2018-01-26T04:39:45.807Z,94.70
2018-01-26T04:42:14.012Z,94.90
2018-01-26T04:44:41.444Z,94.80
2018-01-26T04:47:09.684Z,94.90
2018-01-26T04:49:37.169Z,95.00
2018-01-26T04:52:04.609Z,95.00
2018-01-26T04:54:32.048Z,95.20
2018-01-26T04:56:59.500Z,94.90
2018-01-26T04:59:26.948Z,95.00
2018-01-26T05:01:54.384Z,94.80
2018-01-26T05:04:22.571Z,94.60
2018-01-26T05:06:50.060Z,94.60
2018-01-26T05:09:17.449Z,94.60
2018-01-26T05:11:44.899Z,94.80
2018-01-26T05:14:12.328Z,94.70
2018-01-26T05:16:39.777Z,94.70
2018-01-26T05:19:07.208Z,94.60
2018-01-26T05:21:34.657Z,94.50
2018-01-26T05:24:02.101Z,94.70
2018-01-26T05:26:30.309Z,94.70
2018-01-26T05:28:57.737Z,94.70
2018-01-26T05:31:25.963Z,94.50
2018-01-26T05:33:53.395Z,94.50
2018-01-26T05:36:20.826Z,94.40
2018-01-26T05:38:49.031Z,94.40
2018-01-26T05:41:16.468Z,94.40
2018-01-26T05:43:43.952Z,94.50
2018-01-26T05:46:11.352Z,94.20
2018-01-26T05:48:38.777Z,94.10
2018-01-26T05:51:06.222Z,94.30
2018-01-26T05:53:33.664Z,94.20
2018-01-26T05:56:01.137Z,94.40
2018-01-26T05:58:28.698Z,94.30
2018-01-26T06:00:56.109Z,94.00
2018-01-26T06:03:25.150Z,94.60
2018-01-26T06:05:52.592Z,94.50
2018-01-26T06:08:20.025Z,94.30
2018-01-26T06:10:47.755Z,94.20
2018-01-26T06:13:15.218Z,94.00
2018-01-26T06:15:42.668Z,93.90
2018-01-26T06:18:10.101Z,93.90
2018-01-26T06:20:37.534Z,94.00
2018-01-26T06:23:05.004Z,93.60
2018-01-26T06:25:32.483Z,94.00
2018-01-26T06:27:59.922Z,94.00
2018-01-26T06:30:27.365Z,93.90
2018-01-26T06:32:54.805Z,93.90
2018-01-26T06:35:23.017Z,93.80
2018-01-26T06:37:50.457Z,93.70
2018-01-26T06:40:18.654Z,94.10
2018-01-26T06:42:46.093Z,94.10
2018-01-26T06:45:13.579Z,93.90
2018-01-26T06:47:41.749Z,93.90
2018-01-26T06:50:09.212Z,93.80
2018-01-26T06:52:36.674Z,93.80
2018-01-26T06:55:04.113Z,93.80
2018-01-26T06:57:31.549Z,93.70
2018-01-26T06:59:58.981Z,94.00
2018-01-26T07:02:26.425Z,94.00
2018-01-26T07:04:53.864Z,94.00
2018-01-26T07:07:21.299Z,93.80
2018-01-26T07:09:49.429Z,93.80
2018-01-26T07:12:17.656Z,94.30
2018-01-26T07:14:45.081Z,94.00
2018-01-26T07:17:12.508Z,94.00
2018-01-26T07:19:39.949Z,94.00
2018-01-26T07:22:07.377Z,94.00
2018-01-26T07:24:34.812Z,94.00
2018-01-26T07:27:02.249Z,94.30
2018-01-26T07:29:30.469Z,94.30
2018-01-26T07:31:57.914Z,94.30
2018-01-26T07:34:25.352Z,94.30
2018-01-26T07:36:53.557Z,94.50
2018-01-26T07:39:20.997Z,94.50
2018-01-26T07:41:48.432Z,94.40
2018-01-26T07:44:16.689Z,94.20
2018-01-26T07:46:44.134Z,94.20
2018-01-26T07:49:11.562Z,94.30
2018-01-26T07:51:39.009Z,94.20
2018-01-26T07:54:06.481Z,94.00
2018-01-26T07:56:33.902Z,93.80
2018-01-26T07:59:02.111Z,93.50
2018-01-26T08:01:30.427Z,93.50
2018-01-26T08:03:57.810Z,94.00
2018-01-26T08:06:26.010Z,94.00
2018-01-26T08:08:53.453Z,94.00
2018-01-26T08:11:21.650Z,94.20
2018-01-26T08:13:49.115Z,94.20
2018-01-26T08:16:16.562Z,93.90
2018-01-26T08:18:44.014Z,93.80
2018-01-26T08:21:11.455Z,94.10
2018-01-26T08:23:39.664Z,93.90
2018-01-26T08:26:07.094Z,93.90
2018-01-26T08:28:34.547Z,94.10
2018-01-26T08:31:02.752Z,93.70
2018-01-26T08:33:30.216Z,93.70
2018-01-26T08:35:57.655Z,94.00
2018-01-26T08:38:25.096Z,93.50
2018-01-26T08:40:52.526Z,93.50
2018-01-26T08:43:19.961Z,93.60
2018-01-26T08:45:48.153Z,93.40
2018-01-26T08:48:15.584Z,93.10
2018-01-26T08:50:43.031Z,92.60
2018-01-26T08:53:10.495Z,92.50
2018-01-26T08:55:37.936Z,92.40
2018-01-26T08:58:05.378Z,92.00
2018-01-26T09:00:32.836Z,91.90
2018-01-26T09:03:00.277Z,91.90
2018-01-26T09:05:28.492Z,91.70
2018-01-26T09:07:55.917Z,91.70
2018-01-26T09:10:23.361Z,90.60
2018-01-26T09:12:51.558Z,90.50
2018-01-26T09:15:18.984Z,90.50
2018-01-26T09:17:48.102Z,92.10
2018-01-26T09:20:15.536Z,91.70
2018-01-26T09:22:42.967Z,92.10
2018-01-26T09:25:10.470Z,92.20
2018-01-26T09:27:38.676Z,91.90
2018-01-26T09:30:06.122Z,92.20
2018-01-26T09:32:33.601Z,91.50
2018-01-26T09:35:01.764Z,91.10
2018-01-26T09:37:29.204Z,91.10
2018-01-26T09:39:56.647Z,91.20
2018-01-26T09:42:24.840Z,91.00
2018-01-26T09:44:52.279Z,90.90
2018-01-26T09:47:20.490Z,90.70
2018-01-26T09:49:48.309Z,90.60
2018-01-26T09:52:15.729Z,90.90
2018-01-26T09:54:43.179Z,90.40
2018-01-26T09:57:10.599Z,90.00
2018-01-26T09:59:38.805Z,90.90
2018-01-26T10:02:06.240Z,91.30
2018-01-26T10:04:33.678Z,91.00
2018-01-26T10:07:01.872Z,90.80
2018-01-26T10:09:29.330Z,90.80
2018-01-26T10:11:56.754Z,90.60
2018-01-26T10:14:24.185Z,89.60
2018-01-26T10:16:51.628Z,89.10
2018-01-26T10:19:19.077Z,87.60
2018-01-26T10:21:46.531Z,87.60
2018-01-26T10:24:13.945Z,87.50
2018-01-26T10:26:42.149Z,88.30
2018-01-26T10:29:09.584Z,88.30
2018-01-26T10:31:37.786Z,89.70
2018-01-26T10:34:05.220Z,89.70
2018-01-26T10:36:33.420Z,89.80
2018-01-26T10:39:00.842Z,89.80
2018-01-26T10:41:29.055Z,90.00
2018-01-26T10:43:56.468Z,90.00
2018-01-26T10:46:23.905Z,89.40
2018-01-26T10:48:51.332Z,89.30
2018-01-26T10:51:18.772Z,89.20
2018-01-26T10:53:46.195Z,87.90
2018-01-26T10:56:13.633Z,87.90
2018-01-26T10:58:41.080Z,89.00
2018-01-26T11:01:08.510Z,89.20
2018-01-26T11:03:35.943Z,87.30
2018-01-26T11:06:04.166Z,87.40
2018-01-26T11:08:31.581Z,87.20
2018-01-26T11:10:59.906Z,84.50
2018-01-26T11:13:27.364Z,84.50
2018-01-26T11:15:55.300Z,86.50
2018-01-26T11:18:23.479Z,88.30
2018-01-26T11:20:50.929Z,88.30
2018-01-26T11:23:18.360Z,87.70
2018-01-26T11:25:46.559Z,85.80
2018-01-26T11:28:14.008Z,85.80
2018-01-26T11:30:42.207Z,86.80
2018-01-26T11:33:09.637Z,86.80
2018-01-26T11:35:37.837Z,84.20
2018-01-26T11:38:05.321Z,84.30
2018-01-26T11:40:32.776Z,82.70
2018-01-26T11:43:00.221Z,83.10
2018-01-26T11:45:27.663Z,82.60
2018-01-26T11:47:55.135Z,86.40
2018-01-26T11:50:22.556Z,86.70
2018-01-26T11:52:50.758Z,88.70
2018-01-26T11:55:18.218Z,88.60
2018-01-26T11:57:45.636Z,89.90
2018-01-26T12:00:14.649Z,88.40
2018-01-26T12:02:42.096Z,88.30
2018-01-26T12:05:10.305Z,87.80
2018-01-26T12:07:37.755Z,87.80
2018-01-26T12:10:05.181Z,88.70
2018-01-26T12:12:33.384Z,87.80
2018-01-26T12:15:00.846Z,87.70
2018-01-26T12:17:28.313Z,84.70
2018-01-26T12:19:55.763Z,85.60
2018-01-26T12:22:23.217Z,84.00
2018-01-26T12:24:50.656Z,81.30
2018-01-26T12:27:18.096Z,81.90
2018-01-26T12:29:46.301Z,81.50
2018-01-26T12:32:14.575Z,81.50
2018-01-26T12:34:42.005Z,79.50
2018-01-26T12:37:09.446Z,81.00
2018-01-26T12:39:36.873Z,79.60
2018-01-26T12:42:04.329Z,78.70
2018-01-26T12:44:31.762Z,78.00
2018-01-26T12:46:59.199Z,82.50
2018-01-26T12:49:27.413Z,82.70
2018-01-26T12:51:54.848Z,82.50
2018-01-26T12:54:22.284Z,81.80
2018-01-26T12:56:53.401Z,83.80
2018-01-26T12:59:21.283Z,83.80
2018-01-26T13:01:48.716Z,85.80
2018-01-26T13:04:16.194Z,87.20
2018-01-26T13:06:43.613Z,88.20
2018-01-26T13:09:11.106Z,87.30
2018-01-26T13:11:38.551Z,87.60
2018-01-26T13:14:05.984Z,88.90
2018-01-26T13:16:33.441Z,89.20
2018-01-26T13:19:00.896Z,89.10
2018-01-26T13:21:28.332Z,87.60
2018-01-26T13:23:55.775Z,85.10
2018-01-26T13:26:23.972Z,83.50
2018-01-26T13:28:51.401Z,83.50
2018-01-26T13:31:19.716Z,83.20
2018-01-26T13:33:47.139Z,83.10
2018-01-26T13:36:15.360Z,85.40
2018-01-26T13:38:42.807Z,85.50
2018-01-26T13:41:10.236Z,85.50
2018-01-26T13:43:37.681Z,87.50
2018-01-26T13:46:05.894Z,86.60
2018-01-26T13:48:33.346Z,86.60
2018-01-26T13:51:00.768Z,86.10
2018-01-26T13:53:29.090Z,83.80
2018-01-26T13:55:56.500Z,83.80
2018-01-26T13:58:24.713Z,83.60
2018-01-26T14:00:52.137Z,83.60
2018-01-26T14:03:20.399Z,83.10
2018-01-26T14:05:49.497Z,82.00
2018-01-26T14:08:16.933Z,82.00
2018-01-26T14:10:44.389Z,83.40
2018-01-26T14:13:11.818Z,82.30
2018-01-26T14:15:39.253Z,83.20
2018-01-26T14:18:06.720Z,83.40
2018-01-26T14:20:34.177Z,84.00
2018-01-26T14:23:02.369Z,85.40
2018-01-26T14:25:29.796Z,85.40
2018-01-26T14:27:58.008Z,86.90
2018-01-26T14:30:25.445Z,86.80
2018-01-26T14:32:52.899Z,86.90
2018-01-26T14:35:20.325Z,86.90
2018-01-26T14:37:48.692Z,88.20
2018-01-26T14:40:16.124Z,86.90
2018-01-26T14:42:43.587Z,86.30
2018-01-26T14:45:11.035Z,86.20
2018-01-26T14:47:38.510Z,85.80
2018-01-26T14:50:05.964Z,85.40
2018-01-26T14:52:33.401Z,84.40
2018-01-26T14:55:01.081Z,83.80
2018-01-26T14:57:28.510Z,83.60
2018-01-26T14:59:55.951Z,83.20
2018-01-26T15:02:23.392Z,83.20
2018-01-26T15:04:51.606Z,84.10
2018-01-26T15:07:19.052Z,84.10
2018-01-26T15:09:47.386Z,85.30
2018-01-26T15:12:14.904Z,85.30
2018-01-26T15:14:42.309Z,85.70
2018-01-26T15:17:09.752Z,85.30
2018-01-26T15:19:37.188Z,85.80
2018-01-26T15:22:05.389Z,86.50
2018-01-26T15:24:32.825Z,86.50
2018-01-26T15:27:00.261Z,85.80
2018-01-26T15:29:27.704Z,86.50
2018-01-26T15:31:55.149Z,86.50
2018-01-26T15:34:23.349Z,85.80
2018-01-26T15:36:50.782Z,85.70
2018-01-26T15:39:19.015Z,86.40
2018-01-26T15:41:46.440Z,86.40
2018-01-26T15:44:13.892Z,85.20
2018-01-26T15:46:41.317Z,85.30
2018-01-26T15:49:09.520Z,86.30
2018-01-26T15:51:36.976Z,86.30
2018-01-26T15:54:04.440Z,85.90
2018-01-26T15:56:31.885Z,86.60
2018-01-26T15:59:00.085Z,86.40
2018-01-26T16:01:27.529Z,86.30
2018-01-26T16:03:54.959Z,87.10
2018-01-26T16:06:22.408Z,87.60
2018-01-26T16:08:50.608Z,89.10
2018-01-26T16:11:18.040Z,88.20
2018-01-26T16:13:46.245Z,88.30
2018-01-26T16:16:13.673Z,88.20
2018-01-26T16:18:41.924Z,89.30
2018-01-26T16:21:09.352Z,89.20
2018-01-26T16:23:36.792Z,89.40
2018-01-26T16:26:04.224Z,90.00
2018-01-26T16:28:32.435Z,90.40
2018-01-26T16:30:59.860Z,90.40
2018-01-26T16:33:28.081Z,90.70
2018-01-26T16:35:55.627Z,90.60
2018-01-26T16:38:23.084Z,90.80
2018-01-26T16:40:50.501Z,90.40
2018-01-26T16:43:18.708Z,90.60
2018-01-26T16:45:46.142Z,90.60
2018-01-26T16:48:14.338Z,90.80
2018-01-26T16:50:41.773Z,90.70
2018-01-26T16:53:09.984Z,90.70
2018-01-26T16:55:37.418Z,90.70
2018-01-26T16:58:04.844Z,90.70
2018-01-26T17:00:32.280Z,90.90
2018-01-26T17:03:00.484Z,91.00
2018-01-26T17:05:28.693Z,91.20
2018-01-26T17:07:56.149Z,91.10
2018-01-26T17:10:23.606Z,91.10
2018-01-26T17:12:51.041Z,91.10
2018-01-26T17:15:19.245Z,91.30
2018-01-26T17:17:46.672Z,91.20
2018-01-26T17:20:14.885Z,91.40
2018-01-26T17:22:42.317Z,91.30
2018-01-26T17:25:09.757Z,91.30
2018-01-26T17:27:37.964Z,91.50
2018-01-26T17:30:05.410Z,91.50
2018-01-26T17:32:33.614Z,91.40
2018-01-26T17:35:01.052Z,91.40
2018-01-26T17:37:28.480Z,91.50
2018-01-26T17:39:56.694Z,91.60
2018-01-26T17:42:24.121Z,91.60
2018-01-26T17:44:52.337Z,91.80
2018-01-26T17:47:19.768Z,91.70
2018-01-26T17:49:47.224Z,91.80
2018-01-26T17:52:14.674Z,91.90
2018-01-26T17:54:42.873Z,91.90
2018-01-26T17:57:10.297Z,91.90
2018-01-26T17:59:38.496Z,92.10
2018-01-26T18:02:05.918Z,92.10
2018-01-26T18:04:34.124Z,92.50
2018-01-26T18:07:01.564Z,92.40
2018-01-26T18:09:29.916Z,92.50
2018-01-26T18:11:57.345Z,92.40
2018-01-26T18:14:25.453Z,92.40
2018-01-26T18:16:52.888Z,92.30
2018-01-26T18:19:20.329Z,92.40
2018-01-26T18:21:47.763Z,92.60
2018-01-26T18:24:15.221Z,92.50
2018-01-26T18:26:43.413Z,92.30
2018-01-26T18:29:10.857Z,92.30
2018-01-26T18:31:38.277Z,92.30
2018-01-26T18:34:05.717Z,92.30
2018-01-26T18:36:33.158Z,92.30
2018-01-26T18:39:00.600Z,92.40
2018-01-26T18:41:28.020Z,92.40
2018-01-26T18:43:56.266Z,92.60
2018-01-26T18:46:23.698Z,92.60
2018-01-26T18:48:51.145Z,92.70
2018-01-26T18:51:18.576Z,92.90
2018-01-26T18:53:46.010Z,93.00
2018-01-26T18:56:13.453Z,93.10
2018-01-26T18:58:40.889Z,93.30
2018-01-26T19:01:08.317Z,93.00
2018-01-26T19:03:37.397Z,92.90
2018-01-26T19:06:05.585Z,92.80
2018-01-26T19:08:33.008Z,92.70
2018-01-26T19:11:00.440Z,92.60
2018-01-26T19:13:27.888Z,92.50
2018-01-26T19:15:55.469Z,92.80
2018-01-26T19:18:22.904Z,93.10
2018-01-26T19:20:50.349Z,93.00
2018-01-26T19:23:17.784Z,92.90
2018-01-26T19:25:45.220Z,93.10
2018-01-26T19:28:13.425Z,93.10
2018-01-26T19:30:40.872Z,93.10
2018-01-26T19:33:08.308Z,93.00
2018-01-26T19:35:35.732Z,93.00
2018-01-26T19:38:03.168Z,92.80
2018-01-26T19:40:30.608Z,92.70
2018-01-26T19:42:58.033Z,92.70
2018-01-26T19:45:26.235Z,92.70
2018-01-26T19:47:53.672Z,92.70
2018-01-26T19:50:21.882Z,92.80
2018-01-26T19:52:49.568Z,92.70
2018-01-26T19:55:17.035Z,92.80
2018-01-26T19:57:44.449Z,93.00
2018-01-26T20:00:11.881Z,92.90
2018-01-26T20:02:40.080Z,92.60
2018-01-26T20:05:25.284Z,92.60
2018-01-26T20:07:54.412Z,92.60
2018-01-26T20:10:21.853Z,92.60
2018-01-26T20:12:55.377Z,92.60
2018-01-26T20:15:23.586Z,92.60
2018-01-26T20:17:51.012Z,92.60
2018-01-26T20:20:19.212Z,92.60
2018-01-26T20:22:46.648Z,92.50
2018-01-26T20:25:14.872Z,92.30
2018-01-26T20:27:42.305Z,92.30
2018-01-26T20:30:09.757Z,92.30
2018-01-26T20:32:37.935Z,92.50
2018-01-26T20:35:05.368Z,92.50
2018-01-26T20:37:33.572Z,92.60
2018-01-26T20:40:01.000Z,92.60
2018-01-26T20:42:29.199Z,92.70
2018-01-26T20:44:56.636Z,92.70
2018-01-26T20:47:24.846Z,93.10
2018-01-26T20:49:52.280Z,92.70
2018-01-26T20:52:20.767Z,92.90
2018-01-26T20:54:48.337Z,93.20
2018-01-26T20:57:15.773Z,93.40
2018-01-26T20:59:43.974Z,93.30
2018-01-26T21:02:11.400Z,93.30
2018-01-26T21:04:39.592Z,93.00
2018-01-26T21:07:07.034Z,93.10
2018-01-26T21:09:35.256Z,93.10
2018-01-26T21:12:02.693Z,93.00
2018-01-26T21:14:30.114Z,93.00
2018-01-26T21:16:58.321Z,93.00
2018-01-26T21:19:25.761Z,93.00
2018-01-26T21:21:54.355Z,92.90
2018-01-26T21:24:21.799Z,92.90
2018-01-26T21:26:49.878Z,93.00
2018-01-26T21:29:18.128Z,92.90
2018-01-26T21:31:45.565Z,92.90
2018-01-26T21:34:13.000Z,93.10
2018-01-26T21:36:40.432Z,93.20
2018-01-26T21:39:07.873Z,93.20
2018-01-26T21:41:36.115Z,93.80
2018-01-26T21:44:03.565Z,93.80
2018-01-26T21:46:30.999Z,94.50
2018-01-26T21:48:58.433Z,94.90
2018-01-26T21:51:25.864Z,94.60
2018-01-26T21:53:53.298Z,94.40
2018-01-26T21:56:20.751Z,94.40
2018-01-26T21:58:48.175Z,94.20
2018-01-26T22:01:15.609Z,94.30
2018-01-26T22:03:43.796Z,94.40
2018-01-26T22:06:16.838Z,94.40
2018-01-26T22:08:44.413Z,94.10
2018-01-26T22:11:11.869Z,94.10
2018-01-26T22:13:39.303Z,94.20
2018-01-26T22:16:06.758Z,94.20
2018-01-26T22:18:34.228Z,94.10
2018-01-26T22:21:01.665Z,94.20
2018-01-26T22:23:29.101Z,94.20
2018-01-26T22:25:56.532Z,94.20
2018-01-26T22:28:24.772Z,94.10
2018-01-26T22:30:52.247Z,94.10
2018-01-26T22:33:19.729Z,94.00
2018-01-26T22:35:47.116Z,93.90
2018-01-26T22:38:14.556Z,93.90
2018-01-26T22:40:41.983Z,93.90
2018-01-26T22:43:09.440Z,93.80
2018-01-26T22:45:36.878Z,93.90
2018-01-26T22:48:04.322Z,94.10
2018-01-26T22:50:33.006Z,93.80
2018-01-26T22:53:00.446Z,93.70
2018-01-26T22:55:27.880Z,93.80
2018-01-26T22:57:56.084Z,93.70
2018-01-26T23:00:23.521Z,93.70
2018-01-26T23:02:50.953Z,93.70
2018-01-26T23:05:19.154Z,93.70
2018-01-26T23:07:46.604Z,93.70
2018-01-26T23:10:14.816Z,93.70
2018-01-26T23:12:42.281Z,93.70
2018-01-26T23:15:10.494Z,93.80
2018-01-26T23:17:38.697Z,94.00
2018-01-26T23:20:06.137Z,93.90
2018-01-26T23:22:34.340Z,93.90
2018-01-26T23:25:01.800Z,93.90
2018-01-26T23:27:29.232Z,93.90
2018-01-26T23:29:56.671Z,94.00
2018-01-26T23:32:24.898Z,94.30
2018-01-26T23:34:52.331Z,94.00
2018-01-26T23:37:19.768Z,94.00
2018-01-26T23:39:47.982Z,93.90
2018-01-26T23:42:15.432Z,93.90
2018-01-26T23:44:42.867Z,93.90
2018-01-26T23:47:11.072Z,93.80
2018-01-26T23:49:38.517Z,93.80
2018-01-26T23:52:05.953Z,93.80
2018-01-26T23:54:34.173Z,93.90
2018-01-26T23:57:01.597Z,93.80
2018-01-26T23:59:29.792Z,93.80
